CheckWX is a tool to help pilots better visualize weather data.  It is not intended as a substitute for an official pre-flight weather briefing.

13:16:56 UTC

KOWX METAR
Putnam County Airport
Ottawa, Ohio, USA
Current

21 mins ago

KOWX 221256Z AUTO 02006KT 5SM CLR M02/M05 A3044 RMK AO1
Observed
Feb-22 @ 12:56 UTC
Wind
  • 020° at 6 KTS
Visibility
5 SM
Flight Rules
MVFR
Cloud Levels
  • Clear skies
Temperature
-2°C / 28°F
Dewpoint
-5°C / 23°F
Humidity
80%
Altimeter
30.44" Hg
Pressure
1030.81 hPa
Previous

42 mins ago

KOWX 221235Z AUTO 03006KT 7SM CLR M02/M05 A3043 RMK AO1
Observed
Feb-22 @ 12:35 UTC
Wind
  • 030° at 6 KTS
Visibility
7 SM
Flight Rules
VFR
Cloud Levels
  • Clear skies
Temperature
-2°C / 28°F
Dewpoint
-5°C / 23°F
Humidity
80%
Altimeter
30.43" Hg
Pressure
1030.51 hPa
Previous

1 hour ago

KOWX 221216Z AUTO 05005KT 7SM CLR M02/M05 A3042 RMK AO1
Observed
Feb-22 @ 12:16 UTC
Wind
  • 050° at 5 KTS
Visibility
7 SM
Flight Rules
VFR
Cloud Levels
  • Clear skies
Temperature
-2°C / 28°F
Dewpoint
-5°C / 23°F
Humidity
80%
Altimeter
30.42" Hg
Pressure
1030.11 hPa